sensor_id;sensor_type;location;lat;lon;timestamp;temperature;humidity
1592;DHT22;789;51.612;7.510;2023-04-03T00:02:00;5.50;1.00
1592;DHT22;789;51.612;7.510;2023-04-03T00:04:27;5.60;1.00
1592;DHT22;789;51.612;7.510;2023-04-03T00:06:54;5.60;1.00
1592;DHT22;789;51.612;7.510;2023-04-03T00:09:20;5.50;1.00
1592;DHT22;789;51.612;7.510;2023-04-03T00:11:48;5.50;1.00
1592;DHT22;789;51.612;7.510;2023-04-03T00:14:14;5.50;1.00
1592;DHT22;789;51.612;7.510;2023-04-03T00:16:41;5.50;1.00
1592;DHT22;789;51.612;7.510;2023-04-03T00:19:09;5.40;1.00
1592;DHT22;789;51.612;7.510;2023-04-03T00:21:38;5.40;1.00
1592;DHT22;789;51.612;7.510;2023-04-03T00:24:05;5.40;1.00
1592;DHT22;789;51.612;7.510;2023-04-03T00:26:32;5.40;1.00
1592;DHT22;789;51.612;7.510;2023-04-03T00:28:59;5.40;1.00
1592;DHT22;789;51.612;7.510;2023-04-03T00:31:26;5.30;1.00
1592;DHT22;789;51.612;7.510;2023-04-03T00:33:53;5.40;1.00
1592;DHT22;789;51.612;7.510;2023-04-03T00:36:21;5.30;1.00
1592;DHT22;789;51.612;7.510;2023-04-03T00:38:48;5.30;1.00
1592;DHT22;789;51.612;7.510;2023-04-03T00:41:15;5.30;1.00
1592;DHT22;789;51.612;7.510;2023-04-03T00:43:41;5.30;1.00
1592;DHT22;789;51.612;7.510;2023-04-03T00:46:08;5.30;1.00
1592;DHT22;789;51.612;7.510;2023-04-03T00:48:38;5.30;1.00
1592;DHT22;789;51.612;7.510;2023-04-03T00:51:08;5.20;1.00
1592;DHT22;789;51.612;7.510;2023-04-03T00:53:40;5.20;1.00
1592;DHT22;789;51.612;7.510;2023-04-03T00:56:10;5.20;1.00
1592;DHT22;789;51.612;7.510;2023-04-03T00:58:41;5.20;1.00
1592;DHT22;789;51.612;7.510;2023-04-03T01:01:14;5.10;1.00
1592;DHT22;789;51.612;7.510;2023-04-03T01:03:42;5.10;1.00
1592;DHT22;789;51.612;7.510;2023-04-03T01:06:09;5.10;1.00
1592;DHT22;789;51.612;7.510;2023-04-03T01:08:38;5.10;1.00
1592;DHT22;789;51.612;7.510;2023-04-03T01:11:05;5.10;1.00
1592;DHT22;789;51.612;7.510;2023-04-03T01:13:33;5.10;1.00
1592;DHT22;789;51.612;7.510;2023-04-03T01:16:01;5.10;1.00
1592;DHT22;789;51.612;7.510;2023-04-03T01:18:28;5.00;1.00
1592;DHT22;789;51.612;7.510;2023-04-03T01:26:51;4.90;1.00
1592;DHT22;789;51.612;7.510;2023-04-03T01:29:17;4.90;1.00
1592;DHT22;789;51.612;7.510;2023-04-03T01:31:52;4.80;1.00
1592;DHT22;789;51.612;7.510;2023-04-03T01:34:19;4.80;1.00
1592;DHT22;789;51.612;7.510;2023-04-03T01:36:46;4.80;1.00
1592;DHT22;789;51.612;7.510;2023-04-03T01:39:13;4.80;1.00
1592;DHT22;789;51.612;7.510;2023-04-03T01:41:40;4.70;1.00
1592;DHT22;789;51.612;7.510;2023-04-03T01:44:07;4.70;1.00
1592;DHT22;789;51.612;7.510;2023-04-03T01:46:34;4.70;1.00
1592;DHT22;789;51.612;7.510;2023-04-03T01:49:02;4.70;1.00
1592;DHT22;789;51.612;7.510;2023-04-03T01:51:29;4.70;1.00
1592;DHT22;789;51.612;7.510;2023-04-03T01:53:56;4.70;1.00
1592;DHT22;789;51.612;7.510;2023-04-03T01:56:23;4.80;1.00
1592;DHT22;789;51.612;7.510;2023-04-03T01:58:50;4.70;1.00
1592;DHT22;789;51.612;7.510;2023-04-03T02:01:17;4.60;1.00
1592;DHT22;789;51.612;7.510;2023-04-03T02:03:44;4.70;1.00
1592;DHT22;789;51.612;7.510;2023-04-03T02:06:12;4.60;1.00
1592;DHT22;789;51.612;7.510;2023-04-03T02:08:39;4.60;1.00
1592;DHT22;789;51.612;7.510;2023-04-03T02:11:05;4.50;1.00
1592;DHT22;789;51.612;7.510;2023-04-03T02:13:32;4.50;1.00
1592;DHT22;789;51.612;7.510;2023-04-03T02:15:59;4.50;1.00
1592;DHT22;789;51.612;7.510;2023-04-03T02:18:31;4.50;1.00
1592;DHT22;789;51.612;7.510;2023-04-03T02:20:58;4.50;1.00
1592;DHT22;789;51.612;7.510;2023-04-03T02:23:26;4.40;1.00
1592;DHT22;789;51.612;7.510;2023-04-03T02:26:01;4.40;1.00
1592;DHT22;789;51.612;7.510;2023-04-03T02:28:28;4.40;1.00
1592;DHT22;789;51.612;7.510;2023-04-03T02:30:55;4.40;1.00
1592;DHT22;789;51.612;7.510;2023-04-03T02:33:22;4.30;1.00
1592;DHT22;789;51.612;7.510;2023-04-03T02:35:52;4.30;1.00
1592;DHT22;789;51.612;7.510;2023-04-03T02:38:19;4.30;1.00
1592;DHT22;789;51.612;7.510;2023-04-03T02:40:47;4.10;1.00
1592;DHT22;789;51.612;7.510;2023-04-03T02:43:14;4.30;1.00
1592;DHT22;789;51.612;7.510;2023-04-03T02:45:41;4.20;1.00
1592;DHT22;789;51.612;7.510;2023-04-03T02:48:08;4.20;1.00
1592;DHT22;789;51.612;7.510;2023-04-03T02:50:35;4.20;1.00
1592;DHT22;789;51.612;7.510;2023-04-03T02:53:01;4.10;1.00
1592;DHT22;789;51.612;7.510;2023-04-03T02:55:28;4.10;1.00
1592;DHT22;789;51.612;7.510;2023-04-03T02:57:56;4.10;1.00
1592;DHT22;789;51.612;7.510;2023-04-03T03:00:23;4.10;1.00
1592;DHT22;789;51.612;7.510;2023-04-03T03:02:50;4.00;1.00
1592;DHT22;789;51.612;7.510;2023-04-03T03:05:17;4.00;1.00
1592;DHT22;789;51.612;7.510;2023-04-03T03:07:44;4.00;1.00
1592;DHT22;789;51.612;7.510;2023-04-03T03:10:10;4.00;1.00
1592;DHT22;789;51.612;7.510;2023-04-03T03:12:37;4.00;1.00
1592;DHT22;789;51.612;7.510;2023-04-03T03:15:07;4.00;1.00
1592;DHT22;789;51.612;7.510;2023-04-03T03:17:34;4.00;1.00
1592;DHT22;789;51.612;7.510;2023-04-03T03:20:01;3.90;1.00
1592;DHT22;789;51.612;7.510;2023-04-03T03:22:28;3.90;1.00
1592;DHT22;789;51.612;7.510;2023-04-03T03:24:55;3.90;1.00
1592;DHT22;789;51.612;7.510;2023-04-03T03:27:22;3.90;1.00
1592;DHT22;789;51.612;7.510;2023-04-03T03:29:49;3.90;1.00
1592;DHT22;789;51.612;7.510;2023-04-03T03:32:17;3.80;1.00
1592;DHT22;789;51.612;7.510;2023-04-03T03:34:44;3.80;1.00
1592;DHT22;789;51.612;7.510;2023-04-03T03:37:11;3.80;1.00
1592;DHT22;789;51.612;7.510;2023-04-03T03:39:38;3.70;1.00
1592;DHT22;789;51.612;7.510;2023-04-03T03:42:05;3.70;1.00
1592;DHT22;789;51.612;7.510;2023-04-03T03:44:32;3.70;1.00
1592;DHT22;789;51.612;7.510;2023-04-03T03:46:59;3.70;1.00
1592;DHT22;789;51.612;7.510;2023-04-03T03:49:27;3.60;1.00
1592;DHT22;789;51.612;7.510;2023-04-03T03:51:54;3.60;1.00
1592;DHT22;789;51.612;7.510;2023-04-03T03:54:21;3.60;1.00
1592;DHT22;789;51.612;7.510;2023-04-03T03:56:47;3.60;1.00
1592;DHT22;789;51.612;7.510;2023-04-03T03:59:14;3.60;1.00
1592;DHT22;789;51.612;7.510;2023-04-03T04:01:41;3.60;1.00
1592;DHT22;789;51.612;7.510;2023-04-03T04:04:08;3.80;1.00
1592;DHT22;789;51.612;7.510;2023-04-03T04:06:36;3.50;1.00
1592;DHT22;789;51.612;7.510;2023-04-03T04:09:03;3.50;1.00
1592;DHT22;789;51.612;7.510;2023-04-03T04:11:30;3.50;1.00
1592;DHT22;789;51.612;7.510;2023-04-03T04:13:58;3.50;1.00
1592;DHT22;789;51.612;7.510;2023-04-03T04:16:25;3.50;1.00
1592;DHT22;789;51.612;7.510;2023-04-03T04:18:52;3.50;1.00
1592;DHT22;789;51.612;7.510;2023-04-03T04:21:19;3.50;1.00
1592;DHT22;789;51.612;7.510;2023-04-03T04:23:47;3.50;1.00
1592;DHT22;789;51.612;7.510;2023-04-03T04:26:13;3.50;1.00
1592;DHT22;789;51.612;7.510;2023-04-03T04:28:40;3.50;1.00
1592;DHT22;789;51.612;7.510;2023-04-03T04:31:07;3.50;1.00
1592;DHT22;789;51.612;7.510;2023-04-03T04:33:34;3.50;1.00
1592;DHT22;789;51.612;7.510;2023-04-03T04:36:01;3.50;1.00
1592;DHT22;789;51.612;7.510;2023-04-03T04:38:27;3.40;1.00
1592;DHT22;789;51.612;7.510;2023-04-03T04:40:56;3.40;1.00
1592;DHT22;789;51.612;7.510;2023-04-03T04:43:23;3.30;1.00
1592;DHT22;789;51.612;7.510;2023-04-03T04:46:00;3.30;1.00
1592;DHT22;789;51.612;7.510;2023-04-03T04:48:27;3.30;1.00
1592;DHT22;789;51.612;7.510;2023-04-03T04:50:54;3.20;1.00
1592;DHT22;789;51.612;7.510;2023-04-03T04:53:21;3.20;1.00
1592;DHT22;789;51.612;7.510;2023-04-03T04:55:47;3.20;1.00
1592;DHT22;789;51.612;7.510;2023-04-03T04:58:16;3.20;1.00
1592;DHT22;789;51.612;7.510;2023-04-03T05:00:42;3.20;1.00
1592;DHT22;789;51.612;7.510;2023-04-03T05:03:10;3.20;1.00
1592;DHT22;789;51.612;7.510;2023-04-03T05:05:37;3.20;1.00
1592;DHT22;789;51.612;7.510;2023-04-03T05:08:04;3.10;1.00
1592;DHT22;789;51.612;7.510;2023-04-03T05:10:42;3.10;1.00
1592;DHT22;789;51.612;7.510;2023-04-03T05:13:10;3.10;1.00
1592;DHT22;789;51.612;7.510;2023-04-03T05:15:39;3.10;1.00
1592;DHT22;789;51.612;7.510;2023-04-03T05:18:06;3.00;1.00
1592;DHT22;789;51.612;7.510;2023-04-03T05:20:33;3.00;1.00
1592;DHT22;789;51.612;7.510;2023-04-03T05:23:03;3.00;1.00
1592;DHT22;789;51.612;7.510;2023-04-03T05:25:29;3.00;1.00
1592;DHT22;789;51.612;7.510;2023-04-03T05:27:56;2.90;1.00
1592;DHT22;789;51.612;7.510;2023-04-03T05:30:23;2.90;1.00
1592;DHT22;789;51.612;7.510;2023-04-03T05:32:55;2.90;1.00
1592;DHT22;789;51.612;7.510;2023-04-03T05:35:21;3.00;1.00
1592;DHT22;789;51.612;7.510;2023-04-03T05:37:48;3.00;1.00
1592;DHT22;789;51.612;7.510;2023-04-03T05:40:15;3.00;1.00
1592;DHT22;789;51.612;7.510;2023-04-03T05:42:43;3.00;1.00
1592;DHT22;789;51.612;7.510;2023-04-03T05:45:11;3.10;1.00
1592;DHT22;789;51.612;7.510;2023-04-03T05:47:38;3.10;1.00
1592;DHT22;789;51.612;7.510;2023-04-03T05:50:07;3.10;1.00
1592;DHT22;789;51.612;7.510;2023-04-03T05:52:40;3.20;1.00
1592;DHT22;789;51.612;7.510;2023-04-03T05:55:08;3.20;1.00
1592;DHT22;789;51.612;7.510;2023-04-03T05:57:35;3.30;1.00
1592;DHT22;789;51.612;7.510;2023-04-03T06:00:03;3.40;1.00
1592;DHT22;789;51.612;7.510;2023-04-03T06:02:31;3.50;1.00
1592;DHT22;789;51.612;7.510;2023-04-03T06:04:58;3.70;1.00
1592;DHT22;789;51.612;7.510;2023-04-03T06:07:27;3.90;1.00
1592;DHT22;789;51.612;7.510;2023-04-03T06:09:56;4.10;1.00
1592;DHT22;789;51.612;7.510;2023-04-03T06:12:23;4.20;1.00
1592;DHT22;789;51.612;7.510;2023-04-03T06:14:50;4.40;1.00
1592;DHT22;789;51.612;7.510;2023-04-03T06:17:18;4.50;1.00
1592;DHT22;789;51.612;7.510;2023-04-03T06:19:45;4.70;1.00
1592;DHT22;789;51.612;7.510;2023-04-03T06:22:12;4.90;1.00
1592;DHT22;789;51.612;7.510;2023-04-03T06:24:41;5.00;1.00
1592;DHT22;789;51.612;7.510;2023-04-03T06:27:09;5.10;1.00
1592;DHT22;789;51.612;7.510;2023-04-03T06:29:38;5.20;1.00
1592;DHT22;789;51.612;7.510;2023-04-03T06:32:05;5.40;1.00
1592;DHT22;789;51.612;7.510;2023-04-03T06:34:32;5.50;1.00
1592;DHT22;789;51.612;7.510;2023-04-03T06:36:59;5.60;1.00
1592;DHT22;789;51.612;7.510;2023-04-03T06:39:26;5.80;1.00
1592;DHT22;789;51.612;7.510;2023-04-03T06:41:54;6.00;1.00
1592;DHT22;789;51.612;7.510;2023-04-03T06:44:21;6.00;1.00
1592;DHT22;789;51.612;7.510;2023-04-03T06:46:48;6.10;1.00
1592;DHT22;789;51.612;7.510;2023-04-03T06:49:14;6.20;1.00
1592;DHT22;789;51.612;7.510;2023-04-03T06:51:44;6.30;1.00
1592;DHT22;789;51.612;7.510;2023-04-03T06:54:11;6.30;1.00
1592;DHT22;789;51.612;7.510;2023-04-03T06:56:38;6.40;1.00
1592;DHT22;789;51.612;7.510;2023-04-03T06:59:06;6.50;1.00
1592;DHT22;789;51.612;7.510;2023-04-03T07:01:34;6.70;1.00
1592;DHT22;789;51.612;7.510;2023-04-03T07:04:00;6.80;1.00
1592;DHT22;789;51.612;7.510;2023-04-03T07:06:27;7.10;1.00
1592;DHT22;789;51.612;7.510;2023-04-03T07:08:54;7.20;1.00
1592;DHT22;789;51.612;7.510;2023-04-03T07:11:22;7.40;1.00
1592;DHT22;789;51.612;7.510;2023-04-03T07:13:49;7.60;1.00
1592;DHT22;789;51.612;7.510;2023-04-03T07:16:17;7.90;1.00
1592;DHT22;789;51.612;7.510;2023-04-03T07:18:45;8.30;1.00
1592;DHT22;789;51.612;7.510;2023-04-03T07:21:12;8.70;1.00
1592;DHT22;789;51.612;7.510;2023-04-03T07:23:39;8.80;1.00
1592;DHT22;789;51.612;7.510;2023-04-03T07:26:06;9.20;1.00
1592;DHT22;789;51.612;7.510;2023-04-03T07:28:33;9.80;1.00
1592;DHT22;789;51.612;7.510;2023-04-03T07:31:02;10.20;1.00
1592;DHT22;789;51.612;7.510;2023-04-03T07:33:30;10.60;1.00
1592;DHT22;789;51.612;7.510;2023-04-03T07:35:58;10.70;1.00
1592;DHT22;789;51.612;7.510;2023-04-03T07:38:25;10.90;1.00
1592;DHT22;789;51.612;7.510;2023-04-03T07:40:52;11.30;1.00
1592;DHT22;789;51.612;7.510;2023-04-03T07:43:20;11.80;1.00
1592;DHT22;789;51.612;7.510;2023-04-03T07:45:48;12.20;1.00
1592;DHT22;789;51.612;7.510;2023-04-03T07:48:17;13.10;1.00
1592;DHT22;789;51.612;7.510;2023-04-03T07:50:46;13.60;1.00
1592;DHT22;789;51.612;7.510;2023-04-03T07:53:12;14.00;1.00
1592;DHT22;789;51.612;7.510;2023-04-03T07:55:40;14.10;1.00
1592;DHT22;789;51.612;7.510;2023-04-03T07:58:10;14.30;1.00
1592;DHT22;789;51.612;7.510;2023-04-03T08:00:37;14.70;1.00
1592;DHT22;789;51.612;7.510;2023-04-03T08:03:04;15.30;1.00
1592;DHT22;789;51.612;7.510;2023-04-03T08:05:36;15.50;1.00
1592;DHT22;789;51.612;7.510;2023-04-03T08:08:05;15.90;1.00
1592;DHT22;789;51.612;7.510;2023-04-03T08:10:33;16.70;1.00
1592;DHT22;789;51.612;7.510;2023-04-03T08:13:00;17.00;1.00
1592;DHT22;789;51.612;7.510;2023-04-03T08:15:26;17.50;1.00
1592;DHT22;789;51.612;7.510;2023-04-03T08:17:53;17.80;1.00
1592;DHT22;789;51.612;7.510;2023-04-03T08:20:21;17.60;1.00
1592;DHT22;789;51.612;7.510;2023-04-03T08:22:47;17.90;1.00
1592;DHT22;789;51.612;7.510;2023-04-03T08:25:16;18.50;1.00
1592;DHT22;789;51.612;7.510;2023-04-03T08:27:43;18.90;1.00
1592;DHT22;789;51.612;7.510;2023-04-03T08:30:11;18.80;1.00
1592;DHT22;789;51.612;7.510;2023-04-03T08:32:38;18.60;1.00
1592;DHT22;789;51.612;7.510;2023-04-03T08:35:08;18.50;1.00
1592;DHT22;789;51.612;7.510;2023-04-03T08:37:35;18.60;1.00
1592;DHT22;789;51.612;7.510;2023-04-03T08:40:03;18.80;1.00
1592;DHT22;789;51.612;7.510;2023-04-03T08:42:43;18.50;1.00
1592;DHT22;789;51.612;7.510;2023-04-03T08:45:14;18.60;1.00
1592;DHT22;789;51.612;7.510;2023-04-03T08:47:47;18.40;1.00
1592;DHT22;789;51.612;7.510;2023-04-03T08:50:19;18.80;1.00
1592;DHT22;789;51.612;7.510;2023-04-03T08:52:52;19.50;1.00
1592;DHT22;789;51.612;7.510;2023-04-03T08:55:24;19.80;1.00
1592;DHT22;789;51.612;7.510;2023-04-03T08:57:58;20.10;1.00
1592;DHT22;789;51.612;7.510;2023-04-03T09:00:29;19.70;1.00
1592;DHT22;789;51.612;7.510;2023-04-03T09:02:57;19.20;1.00
1592;DHT22;789;51.612;7.510;2023-04-03T09:05:34;18.70;1.00
1592;DHT22;789;51.612;7.510;2023-04-03T09:08:12;18.60;1.00
1592;DHT22;789;51.612;7.510;2023-04-03T09:10:43;18.80;1.00
1592;DHT22;789;51.612;7.510;2023-04-03T09:13:18;19.00;1.00
1592;DHT22;789;51.612;7.510;2023-04-03T09:15:48;18.80;1.00
1592;DHT22;789;51.612;7.510;2023-04-03T09:18:19;18.60;1.00
1592;DHT22;789;51.612;7.510;2023-04-03T09:20:54;18.50;1.00
1592;DHT22;789;51.612;7.510;2023-04-03T09:23:26;18.80;1.00
1592;DHT22;789;51.612;7.510;2023-04-03T09:26:00;18.10;1.00
1592;DHT22;789;51.612;7.510;2023-04-03T09:28:32;18.20;1.00
1592;DHT22;789;51.612;7.510;2023-04-03T09:31:01;18.30;1.00
1592;DHT22;789;51.612;7.510;2023-04-03T09:33:29;18.80;1.00
1592;DHT22;789;51.612;7.510;2023-04-03T09:35:57;19.10;1.00
1592;DHT22;789;51.612;7.510;2023-04-03T09:38:23;19.60;1.00
1592;DHT22;789;51.612;7.510;2023-04-03T09:41:03;20.10;1.00
1592;DHT22;789;51.612;7.510;2023-04-03T09:43:35;20.20;1.00
1592;DHT22;789;51.612;7.510;2023-04-03T09:46:21;20.00;1.00
1592;DHT22;789;51.612;7.510;2023-04-03T09:48:51;19.80;1.00
1592;DHT22;789;51.612;7.510;2023-04-03T09:51:18;19.60;1.00
1592;DHT22;789;51.612;7.510;2023-04-03T09:53:45;18.90;1.00
1592;DHT22;789;51.612;7.510;2023-04-03T09:56:20;18.70;1.00
1592;DHT22;789;51.612;7.510;2023-04-03T09:58:51;18.70;1.00
1592;DHT22;789;51.612;7.510;2023-04-03T10:01:25;18.90;1.00
1592;DHT22;789;51.612;7.510;2023-04-03T10:04:07;18.90;1.00
1592;DHT22;789;51.612;7.510;2023-04-03T10:06:36;18.90;1.00
1592;DHT22;789;51.612;7.510;2023-04-03T10:09:18;18.90;1.00
1592;DHT22;789;51.612;7.510;2023-04-03T10:12:01;19.10;1.00
1592;DHT22;789;51.612;7.510;2023-04-03T10:14:32;19.70;1.00
1592;DHT22;789;51.612;7.510;2023-04-03T10:17:04;19.70;1.00
1592;DHT22;789;51.612;7.510;2023-04-03T10:19:39;19.50;1.00
1592;DHT22;789;51.612;7.510;2023-04-03T10:22:19;19.80;1.00
1592;DHT22;789;51.612;7.510;2023-04-03T10:24:53;19.90;1.00
1592;DHT22;789;51.612;7.510;2023-04-03T10:27:31;19.60;1.00
1592;DHT22;789;51.612;7.510;2023-04-03T10:30:06;19.20;1.00
1592;DHT22;789;51.612;7.510;2023-04-03T10:32:57;19.60;1.00
1592;DHT22;789;51.612;7.510;2023-04-03T10:35:37;19.90;1.00
1592;DHT22;789;51.612;7.510;2023-04-03T10:38:12;19.90;1.00
1592;DHT22;789;51.612;7.510;2023-04-03T10:40:47;20.20;1.00
1592;DHT22;789;51.612;7.510;2023-04-03T10:43:21;20.50;1.00
1592;DHT22;789;51.612;7.510;2023-04-03T10:45:58;20.40;1.00
1592;DHT22;789;51.612;7.510;2023-04-03T10:49:01;20.20;1.00
1592;DHT22;789;51.612;7.510;2023-04-03T10:51:39;19.90;1.00
1592;DHT22;789;51.612;7.510;2023-04-03T10:54:12;20.00;1.00
1592;DHT22;789;51.612;7.510;2023-04-03T10:56:43;20.20;1.00
1592;DHT22;789;51.612;7.510;2023-04-03T10:59:24;21.20;1.00
1592;DHT22;789;51.612;7.510;2023-04-03T11:01:56;22.30;1.00
1592;DHT22;789;51.612;7.510;2023-04-03T11:04:28;22.90;1.00
1592;DHT22;789;51.612;7.510;2023-04-03T11:07:00;22.60;1.00
1592;DHT22;789;51.612;7.510;2023-04-03T11:09:28;22.20;1.00
1592;DHT22;789;51.612;7.510;2023-04-03T11:12:04;21.70;1.00
1592;DHT22;789;51.612;7.510;2023-04-03T11:14:34;20.80;1.00
1592;DHT22;789;51.612;7.510;2023-04-03T11:17:08;20.50;1.00
1592;DHT22;789;51.612;7.510;2023-04-03T11:19:42;20.00;1.00
1592;DHT22;789;51.612;7.510;2023-04-03T11:22:18;19.70;1.00
1592;DHT22;789;51.612;7.510;2023-04-03T11:24:54;19.60;1.00
1592;DHT22;789;51.612;7.510;2023-04-03T11:27:23;19.40;1.00
1592;DHT22;789;51.612;7.510;2023-04-03T11:29:52;19.70;1.00
1592;DHT22;789;51.612;7.510;2023-04-03T11:32:48;20.60;1.00
1592;DHT22;789;51.612;7.510;2023-04-03T11:35:18;20.80;1.00
1592;DHT22;789;51.612;7.510;2023-04-03T11:37:47;20.70;1.00
1592;DHT22;789;51.612;7.510;2023-04-03T11:40:22;20.60;1.00
1592;DHT22;789;51.612;7.510;2023-04-03T11:42:53;20.30;1.00
1592;DHT22;789;51.612;7.510;2023-04-03T11:45:49;19.90;1.00
1592;DHT22;789;51.612;7.510;2023-04-03T11:48:44;19.10;1.00
1592;DHT22;789;51.612;7.510;2023-04-03T11:51:38;18.70;1.00
1592;DHT22;789;51.612;7.510;2023-04-03T12:00:53;20.30;1.00
1592;DHT22;789;51.612;7.510;2023-04-03T12:04:10;20.00;1.00
1592;DHT22;789;51.612;7.510;2023-04-03T12:10:12;18.90;1.00
1592;DHT22;789;51.612;7.510;2023-04-03T12:12:40;18.30;1.00
1592;DHT22;789;51.612;7.510;2023-04-03T12:15:24;17.40;1.00
1592;DHT22;789;51.612;7.510;2023-04-03T12:17:52;16.40;1.00
1592;DHT22;789;51.612;7.510;2023-04-03T12:20:54;15.50;1.00
1592;DHT22;789;51.612;7.510;2023-04-03T12:23:29;14.40;1.00
1592;DHT22;789;51.612;7.510;2023-04-03T12:26:04;13.40;1.00
1592;DHT22;789;51.612;7.510;2023-04-03T12:28:37;12.80;1.00
1592;DHT22;789;51.612;7.510;2023-04-03T12:31:05;12.20;1.00
1592;DHT22;789;51.612;7.510;2023-04-03T12:33:46;12.10;1.00
1592;DHT22;789;51.612;7.510;2023-04-03T12:36:29;11.50;1.00
1592;DHT22;789;51.612;7.510;2023-04-03T12:42:04;11.00;1.00
1592;DHT22;789;51.612;7.510;2023-04-03T12:44:40;10.80;1.00
1592;DHT22;789;51.612;7.510;2023-04-03T12:47:28;10.60;1.00
1592;DHT22;789;51.612;7.510;2023-04-03T12:49:59;10.50;1.00
1592;DHT22;789;51.612;7.510;2023-04-03T12:52:38;10.40;1.00
1592;DHT22;789;51.612;7.510;2023-04-03T12:55:13;10.20;1.00
1592;DHT22;789;51.612;7.510;2023-04-03T12:57:40;10.10;1.00
1592;DHT22;789;51.612;7.510;2023-04-03T13:00:35;10.00;1.00
1592;DHT22;789;51.612;7.510;2023-04-03T13:03:06;10.00;1.00
1592;DHT22;789;51.612;7.510;2023-04-03T13:05:46;9.90;1.00
1592;DHT22;789;51.612;7.510;2023-04-03T13:08:14;9.80;1.00
1592;DHT22;789;51.612;7.510;2023-04-03T13:10:48;9.70;1.00
1592;DHT22;789;51.612;7.510;2023-04-03T13:13:18;9.90;1.00
1592;DHT22;789;51.612;7.510;2023-04-03T13:15:46;9.70;1.00
1592;DHT22;789;51.612;7.510;2023-04-03T13:18:25;9.70;1.00
1592;DHT22;789;51.612;7.510;2023-04-03T13:20:53;9.70;1.00
1592;DHT22;789;51.612;7.510;2023-04-03T13:23:25;9.70;1.00
1592;DHT22;789;51.612;7.510;2023-04-03T13:25:52;9.80;1.00
1592;DHT22;789;51.612;7.510;2023-04-03T13:28:22;9.70;1.00
1592;DHT22;789;51.612;7.510;2023-04-03T13:31:05;9.80;1.00
1592;DHT22;789;51.612;7.510;2023-04-03T13:33:36;9.70;1.00
1592;DHT22;789;51.612;7.510;2023-04-03T13:36:07;9.70;1.00
1592;DHT22;789;51.612;7.510;2023-04-03T13:38:36;9.80;1.00
1592;DHT22;789;51.612;7.510;2023-04-03T13:41:20;9.70;1.00
1592;DHT22;789;51.612;7.510;2023-04-03T13:43:50;9.70;1.00
1592;DHT22;789;51.612;7.510;2023-04-03T13:46:25;9.70;1.00
1592;DHT22;789;51.612;7.510;2023-04-03T13:48:54;9.70;1.00
1592;DHT22;789;51.612;7.510;2023-04-03T13:51:23;9.80;1.00
1592;DHT22;789;51.612;7.510;2023-04-03T13:53:54;9.70;1.00
1592;DHT22;789;51.612;7.510;2023-04-03T13:56:30;9.60;1.00
1592;DHT22;789;51.612;7.510;2023-04-03T13:59:19;9.60;1.00
1592;DHT22;789;51.612;7.510;2023-04-03T14:01:50;9.60;1.00
1592;DHT22;789;51.612;7.510;2023-04-03T14:04:19;10.00;1.00
1592;DHT22;789;51.612;7.510;2023-04-03T14:06:48;9.60;1.00
1592;DHT22;789;51.612;7.510;2023-04-03T14:09:18;9.60;1.00
1592;DHT22;789;51.612;7.510;2023-04-03T14:11:47;9.60;1.00
1592;DHT22;789;51.612;7.510;2023-04-03T14:14:17;9.60;1.00
1592;DHT22;789;51.612;7.510;2023-04-03T14:16:46;9.60;1.00
1592;DHT22;789;51.612;7.510;2023-04-03T14:19:20;9.50;1.00
1592;DHT22;789;51.612;7.510;2023-04-03T14:21:47;9.50;1.00
1592;DHT22;789;51.612;7.510;2023-04-03T14:24:20;9.50;1.00
1592;DHT22;789;51.612;7.510;2023-04-03T14:26:52;9.50;1.00
1592;DHT22;789;51.612;7.510;2023-04-03T14:29:20;9.50;1.00
1592;DHT22;789;51.612;7.510;2023-04-03T14:31:47;9.60;1.00
1592;DHT22;789;51.612;7.510;2023-04-03T14:34:16;9.60;1.00
1592;DHT22;789;51.612;7.510;2023-04-03T14:36:44;9.50;1.00
1592;DHT22;789;51.612;7.510;2023-04-03T14:39:17;9.50;1.00
1592;DHT22;789;51.612;7.510;2023-04-03T14:41:45;9.40;1.00
1592;DHT22;789;51.612;7.510;2023-04-03T14:44:12;9.40;1.00
1592;DHT22;789;51.612;7.510;2023-04-03T14:46:42;9.30;1.00
1592;DHT22;789;51.612;7.510;2023-04-03T14:49:13;9.40;1.00
1592;DHT22;789;51.612;7.510;2023-04-03T14:51:40;9.30;1.00
1592;DHT22;789;51.612;7.510;2023-04-03T14:54:12;9.30;1.00
1592;DHT22;789;51.612;7.510;2023-04-03T14:56:41;9.20;1.00
1592;DHT22;789;51.612;7.510;2023-04-03T14:59:11;9.20;1.00
1592;DHT22;789;51.612;7.510;2023-04-03T15:01:38;9.30;1.00
1592;DHT22;789;51.612;7.510;2023-04-03T15:04:09;9.30;1.00
1592;DHT22;789;51.612;7.510;2023-04-03T15:06:36;9.40;1.00
1592;DHT22;789;51.612;7.510;2023-04-03T15:09:03;9.40;1.00
1592;DHT22;789;51.612;7.510;2023-04-03T15:11:30;9.30;1.00
1592;DHT22;789;51.612;7.510;2023-04-03T15:13:58;9.30;1.00
1592;DHT22;789;51.612;7.510;2023-04-03T15:16:25;9.30;1.00
1592;DHT22;789;51.612;7.510;2023-04-03T15:18:52;9.20;1.00
1592;DHT22;789;51.612;7.510;2023-04-03T15:21:19;9.30;1.00
1592;DHT22;789;51.612;7.510;2023-04-03T15:23:48;9.30;1.00
1592;DHT22;789;51.612;7.510;2023-04-03T15:26:15;9.30;1.00
1592;DHT22;789;51.612;7.510;2023-04-03T15:28:42;9.30;1.00
1592;DHT22;789;51.612;7.510;2023-04-03T15:31:11;9.40;1.00
1592;DHT22;789;51.612;7.510;2023-04-03T15:33:38;9.30;1.00
1592;DHT22;789;51.612;7.510;2023-04-03T15:36:05;9.30;1.00
1592;DHT22;789;51.612;7.510;2023-04-03T15:38:32;9.20;1.00
1592;DHT22;789;51.612;7.510;2023-04-03T15:40:59;9.30;1.00
1592;DHT22;789;51.612;7.510;2023-04-03T15:43:26;9.30;1.00
1592;DHT22;789;51.612;7.510;2023-04-03T15:45:56;9.20;1.00
1592;DHT22;789;51.612;7.510;2023-04-03T15:48:26;9.30;1.00
1592;DHT22;789;51.612;7.510;2023-04-03T15:50:54;9.30;1.00
1592;DHT22;789;51.612;7.510;2023-04-03T15:53:21;9.20;1.00
1592;DHT22;789;51.612;7.510;2023-04-03T15:55:48;9.20;1.00
1592;DHT22;789;51.612;7.510;2023-04-03T15:58:15;9.20;1.00
1592;DHT22;789;51.612;7.510;2023-04-03T16:00:41;9.20;1.00
1592;DHT22;789;51.612;7.510;2023-04-03T16:03:10;9.20;1.00
1592;DHT22;789;51.612;7.510;2023-04-03T16:05:41;9.10;1.00
1592;DHT22;789;51.612;7.510;2023-04-03T16:08:08;9.00;1.00
1592;DHT22;789;51.612;7.510;2023-04-03T16:10:36;8.90;1.00
1592;DHT22;789;51.612;7.510;2023-04-03T16:13:04;8.90;1.00
1592;DHT22;789;51.612;7.510;2023-04-03T16:15:32;8.80;1.00
1592;DHT22;789;51.612;7.510;2023-04-03T16:17:59;8.80;1.00
1592;DHT22;789;51.612;7.510;2023-04-03T16:20:27;8.90;1.00
1592;DHT22;789;51.612;7.510;2023-04-03T16:22:56;8.90;1.00
1592;DHT22;789;51.612;7.510;2023-04-03T16:25:23;8.90;1.00
1592;DHT22;789;51.612;7.510;2023-04-03T16:27:50;8.90;1.00
1592;DHT22;789;51.612;7.510;2023-04-03T16:30:17;8.90;1.00
1592;DHT22;789;51.612;7.510;2023-04-03T16:32:45;8.90;1.00
1592;DHT22;789;51.612;7.510;2023-04-03T16:35:12;8.80;1.00
1592;DHT22;789;51.612;7.510;2023-04-03T16:37:39;9.10;1.00
1592;DHT22;789;51.612;7.510;2023-04-03T16:40:09;8.80;1.00
1592;DHT22;789;51.612;7.510;2023-04-03T16:42:37;8.70;1.00
1592;DHT22;789;51.612;7.510;2023-04-03T16:45:07;8.70;1.00
1592;DHT22;789;51.612;7.510;2023-04-03T16:47:37;8.70;1.00
1592;DHT22;789;51.612;7.510;2023-04-03T16:50:05;8.60;1.00
1592;DHT22;789;51.612;7.510;2023-04-03T16:52:32;8.60;1.00
1592;DHT22;789;51.612;7.510;2023-04-03T16:54:59;8.60;1.00
1592;DHT22;789;51.612;7.510;2023-04-03T16:57:27;8.60;1.00
1592;DHT22;789;51.612;7.510;2023-04-03T16:59:55;8.70;1.00
1592;DHT22;789;51.612;7.510;2023-04-03T17:02:24;8.60;1.00
1592;DHT22;789;51.612;7.510;2023-04-03T17:04:51;9.00;1.00
1592;DHT22;789;51.612;7.510;2023-04-03T17:07:19;8.60;1.00
1592;DHT22;789;51.612;7.510;2023-04-03T17:09:46;8.60;1.00
1592;DHT22;789;51.612;7.510;2023-04-03T17:12:13;8.90;1.00
1592;DHT22;789;51.612;7.510;2023-04-03T17:14:42;8.60;1.00
1592;DHT22;789;51.612;7.510;2023-04-03T17:17:09;8.60;1.00
1592;DHT22;789;51.612;7.510;2023-04-03T17:19:37;8.60;1.00
1592;DHT22;789;51.612;7.510;2023-04-03T17:22:06;8.60;1.00
1592;DHT22;789;51.612;7.510;2023-04-03T17:24:33;8.60;1.00